sensor_id;sensor_type;location;lat;lon;timestamp;P1;durP1;ratioP1;P2;durP2;ratioP2
40707;SDS011;26392;42.696;23.350;2023-05-07T00:01:02;11.40;;;3.33;;
40707;SDS011;26392;42.696;23.350;2023-05-07T00:03:27;7.22;;;3.10;;
40707;SDS011;26392;42.696;23.350;2023-05-07T00:05:53;8.02;;;3.58;;
40707;SDS011;26392;42.696;23.350;2023-05-07T00:08:19;4.20;;;3.70;;
40707;SDS011;26392;42.696;23.350;2023-05-07T00:10:45;10.57;;;3.72;;
40707;SDS011;26392;42.696;23.350;2023-05-07T00:13:11;4.10;;;3.40;;
40707;SDS011;26392;42.696;23.350;2023-05-07T00:15:37;7.55;;;3.45;;
40707;SDS011;26392;42.696;23.350;2023-05-07T00:18:02;4.45;;;3.20;;
40707;SDS011;26392;42.696;23.350;2023-05-07T00:20:27;6.15;;;2.67;;
40707;SDS011;26392;42.696;23.350;2023-05-07T00:22:53;3.00;;;2.80;;
40707;SDS011;26392;42.696;23.350;2023-05-07T00:25:18;5.55;;;3.40;;
40707;SDS011;26392;42.696;23.350;2023-05-07T00:27:44;3.50;;;2.72;;
40707;SDS011;26392;42.696;23.350;2023-05-07T00:30:10;6.45;;;4.88;;
40707;SDS011;26392;42.696;23.350;2023-05-07T00:32:36;4.22;;;2.85;;
40707;SDS011;26392;42.696;23.350;2023-05-07T00:35:02;5.43;;;3.25;;
40707;SDS011;26392;42.696;23.350;2023-05-07T00:37:28;1.95;;;1.80;;
40707;SDS011;26392;42.696;23.350;2023-05-07T00:39:54;6.35;;;2.28;;
40707;SDS011;26392;42.696;23.350;2023-05-07T00:42:19;1.77;;;1.67;;
40707;SDS011;26392;42.696;23.350;2023-05-07T00:44:44;6.07;;;3.20;;
40707;SDS011;26392;42.696;23.350;2023-05-07T00:47:10;1.67;;;1.58;;
40707;SDS011;26392;42.696;23.350;2023-05-07T00:49:41;2.97;;;1.70;;
40707;SDS011;26392;42.696;23.350;2023-05-07T00:52:07;4.65;;;3.20;;
40707;SDS011;26392;42.696;23.350;2023-05-07T00:54:36;3.10;;;1.88;;
40707;SDS011;26392;42.696;23.350;2023-05-07T00:57:02;2.38;;;2.05;;
40707;SDS011;26392;42.696;23.350;2023-05-07T00:59:28;2.28;;;2.08;;
40707;SDS011;26392;42.696;23.350;2023-05-07T01:01:53;5.38;;;2.97;;
40707;SDS011;26392;42.696;23.350;2023-05-07T01:04:19;4.70;;;2.53;;
40707;SDS011;26392;42.696;23.350;2023-05-07T01:06:44;4.65;;;2.40;;
40707;SDS011;26392;42.696;23.350;2023-05-07T01:09:11;1.83;;;1.73;;
40707;SDS011;26392;42.696;23.350;2023-05-07T01:11:37;2.97;;;1.92;;
40707;SDS011;26392;42.696;23.350;2023-05-07T01:14:03;2.63;;;1.92;;
40707;SDS011;26392;42.696;23.350;2023-05-07T01:16:29;5.32;;;2.72;;
40707;SDS011;26392;42.696;23.350;2023-05-07T01:18:56;6.40;;;2.22;;
40707;SDS011;26392;42.696;23.350;2023-05-07T01:21:25;3.08;;;2.05;;
40707;SDS011;26392;42.696;23.350;2023-05-07T01:23:52;6.13;;;2.53;;
40707;SDS011;26392;42.696;23.350;2023-05-07T01:26:18;1.52;;;1.42;;
40707;SDS011;26392;42.696;23.350;2023-05-07T01:28:45;3.72;;;2.65;;
40707;SDS011;26392;42.696;23.350;2023-05-07T01:31:10;5.38;;;2.95;;
40707;SDS011;26392;42.696;23.350;2023-05-07T01:33:38;2.10;;;1.60;;
40707;SDS011;26392;42.696;23.350;2023-05-07T01:36:06;3.72;;;1.63;;
40707;SDS011;26392;42.696;23.350;2023-05-07T01:38:34;2.25;;;1.52;;
40707;SDS011;26392;42.696;23.350;2023-05-07T01:41:01;1.48;;;1.38;;
40707;SDS011;26392;42.696;23.350;2023-05-07T01:43:28;1.95;;;1.77;;
40707;SDS011;26392;42.696;23.350;2023-05-07T01:45:55;2.30;;;1.35;;
40707;SDS011;26392;42.696;23.350;2023-05-07T01:48:22;3.35;;;1.27;;
40707;SDS011;26392;42.696;23.350;2023-05-07T01:50:48;1.52;;;1.20;;
40707;SDS011;26392;42.696;23.350;2023-05-07T01:53:14;1.63;;;1.52;;
40707;SDS011;26392;42.696;23.350;2023-05-07T01:55:39;1.33;;;1.20;;
40707;SDS011;26392;42.696;23.350;2023-05-07T01:58:05;2.30;;;1.90;;
40707;SDS011;26392;42.696;23.350;2023-05-07T02:00:31;3.42;;;1.50;;
40707;SDS011;26392;42.696;23.350;2023-05-07T02:02:56;3.08;;;1.60;;
40707;SDS011;26392;42.696;23.350;2023-05-07T02:05:22;1.77;;;1.63;;
40707;SDS011;26392;42.696;23.350;2023-05-07T02:07:48;2.15;;;1.48;;
40707;SDS011;26392;42.696;23.350;2023-05-07T02:10:13;3.88;;;2.30;;
40707;SDS011;26392;42.696;23.350;2023-05-07T02:12:39;6.22;;;1.98;;
40707;SDS011;26392;42.696;23.350;2023-05-07T02:15:04;3.72;;;1.77;;
40707;SDS011;26392;42.696;23.350;2023-05-07T02:17:30;2.67;;;1.58;;
40707;SDS011;26392;42.696;23.350;2023-05-07T02:19:57;2.40;;;2.15;;
40707;SDS011;26392;42.696;23.350;2023-05-07T02:22:23;3.58;;;1.38;;
40707;SDS011;26392;42.696;23.350;2023-05-07T02:24:49;5.40;;;2.08;;
40707;SDS011;26392;42.696;23.350;2023-05-07T02:27:14;3.70;;;2.08;;
40707;SDS011;26392;42.696;23.350;2023-05-07T02:29:40;3.05;;;1.52;;
40707;SDS011;26392;42.696;23.350;2023-05-07T02:32:05;6.20;;;2.35;;
40707;SDS011;26392;42.696;23.350;2023-05-07T02:34:31;4.13;;;1.73;;
40707;SDS011;26392;42.696;23.350;2023-05-07T02:36:56;2.00;;;1.40;;
40707;SDS011;26392;42.696;23.350;2023-05-07T02:39:21;2.60;;;2.40;;
40707;SDS011;26392;42.696;23.350;2023-05-07T02:41:47;2.15;;;1.85;;
40707;SDS011;26392;42.696;23.350;2023-05-07T02:44:12;9.18;;;1.67;;
40707;SDS011;26392;42.696;23.350;2023-05-07T02:46:38;1.73;;;1.63;;
40707;SDS011;26392;42.696;23.350;2023-05-07T02:49:03;3.20;;;2.95;;
40707;SDS011;26392;42.696;23.350;2023-05-07T02:51:29;3.05;;;2.72;;
40707;SDS011;26392;42.696;23.350;2023-05-07T02:53:55;4.13;;;2.42;;
40707;SDS011;26392;42.696;23.350;2023-05-07T02:56:20;29.02;;;2.55;;
40707;SDS011;26392;42.696;23.350;2023-05-07T02:58:46;4.65;;;2.70;;
40707;SDS011;26392;42.696;23.350;2023-05-07T03:01:12;2.38;;;2.15;;
40707;SDS011;26392;42.696;23.350;2023-05-07T03:03:38;3.70;;;2.45;;
40707;SDS011;26392;42.696;23.350;2023-05-07T03:06:05;3.00;;;2.08;;
40707;SDS011;26392;42.696;23.350;2023-05-07T03:08:31;4.07;;;2.42;;
40707;SDS011;26392;42.696;23.350;2023-05-07T03:10:57;2.50;;;1.92;;
40707;SDS011;26392;42.696;23.350;2023-05-07T03:13:23;2.20;;;1.83;;
40707;SDS011;26392;42.696;23.350;2023-05-07T03:15:48;3.42;;;1.70;;
40707;SDS011;26392;42.696;23.350;2023-05-07T03:18:14;1.88;;;1.40;;
40707;SDS011;26392;42.696;23.350;2023-05-07T03:20:39;2.10;;;2.00;;
40707;SDS011;26392;42.696;23.350;2023-05-07T03:23:04;1.67;;;1.58;;
40707;SDS011;26392;42.696;23.350;2023-05-07T03:25:30;4.43;;;2.13;;
40707;SDS011;26392;42.696;23.350;2023-05-07T03:27:55;3.53;;;3.22;;
40707;SDS011;26392;42.696;23.350;2023-05-07T03:30:21;6.93;;;2.83;;
40707;SDS011;26392;42.696;23.350;2023-05-07T03:32:46;5.18;;;3.22;;
40707;SDS011;26392;42.696;23.350;2023-05-07T03:35:12;2.95;;;2.13;;
40707;SDS011;26392;42.696;23.350;2023-05-07T03:37:38;9.20;;;4.72;;
40707;SDS011;26392;42.696;23.350;2023-05-07T03:40:04;2.90;;;2.33;;
40707;SDS011;26392;42.696;23.350;2023-05-07T03:42:30;3.53;;;2.58;;
40707;SDS011;26392;42.696;23.350;2023-05-07T03:44:56;5.88;;;1.95;;
40707;SDS011;26392;42.696;23.350;2023-05-07T03:47:21;3.28;;;2.47;;
40707;SDS011;26392;42.696;23.350;2023-05-07T03:49:46;2.65;;;2.03;;
40707;SDS011;26392;42.696;23.350;2023-05-07T03:52:13;4.40;;;3.42;;
40707;SDS011;26392;42.696;23.350;2023-05-07T03:54:39;1.80;;;1.40;;
40707;SDS011;26392;42.696;23.350;2023-05-07T03:57:04;2.28;;;2.08;;
40707;SDS011;26392;42.696;23.350;2023-05-07T03:59:30;3.17;;;2.90;;
40707;SDS011;26392;42.696;23.350;2023-05-07T04:01:55;7.20;;;4.63;;
40707;SDS011;26392;42.696;23.350;2023-05-07T04:04:21;2.72;;;2.40;;
40707;SDS011;26392;42.696;23.350;2023-05-07T04:06:46;5.80;;;2.63;;
40707;SDS011;26392;42.696;23.350;2023-05-07T04:09:11;8.07;;;3.08;;
40707;SDS011;26392;42.696;23.350;2023-05-07T04:11:37;3.83;;;2.92;;
40707;SDS011;26392;42.696;23.350;2023-05-07T04:14:05;2.42;;;1.58;;
40707;SDS011;26392;42.696;23.350;2023-05-07T04:16:30;3.47;;;2.85;;
40707;SDS011;26392;42.696;23.350;2023-05-07T04:18:55;5.50;;;1.83;;
40707;SDS011;26392;42.696;23.350;2023-05-07T04:21:21;1.50;;;1.40;;
40707;SDS011;26392;42.696;23.350;2023-05-07T04:23:47;2.25;;;2.05;;
40707;SDS011;26392;42.696;23.350;2023-05-07T04:26:13;1.55;;;1.45;;
40707;SDS011;26392;42.696;23.350;2023-05-07T04:28:39;2.92;;;2.00;;
40707;SDS011;26392;42.696;23.350;2023-05-07T04:31:05;3.95;;;2.17;;
40707;SDS011;26392;42.696;23.350;2023-05-07T04:33:31;2.38;;;2.05;;
40707;SDS011;26392;42.696;23.350;2023-05-07T04:35:57;3.33;;;2.17;;
40707;SDS011;26392;42.696;23.350;2023-05-07T04:38:27;3.67;;;2.10;;
40707;SDS011;26392;42.696;23.350;2023-05-07T04:40:56;2.90;;;2.30;;
40707;SDS011;26392;42.696;23.350;2023-05-07T04:43:22;3.35;;;1.92;;
40707;SDS011;26392;42.696;23.350;2023-05-07T04:45:49;3.78;;;2.20;;
40707;SDS011;26392;42.696;23.350;2023-05-07T04:48:16;3.83;;;2.45;;
40707;SDS011;26392;42.696;23.350;2023-05-07T04:50:44;4.25;;;2.83;;
40707;SDS011;26392;42.696;23.350;2023-05-07T04:53:12;12.85;;;1.90;;
40707;SDS011;26392;42.696;23.350;2023-05-07T04:55:37;3.08;;;2.30;;
40707;SDS011;26392;42.696;23.350;2023-05-07T04:58:02;3.78;;;2.63;;
40707;SDS011;26392;42.696;23.350;2023-05-07T05:00:29;6.00;;;3.13;;
40707;SDS011;26392;42.696;23.350;2023-05-07T05:02:55;9.38;;;4.10;;
40707;SDS011;26392;42.696;23.350;2023-05-07T05:05:20;6.35;;;3.33;;
40707;SDS011;26392;42.696;23.350;2023-05-07T05:07:46;2.72;;;2.40;;
40707;SDS011;26392;42.696;23.350;2023-05-07T05:10:11;2.17;;;1.98;;
40707;SDS011;26392;42.696;23.350;2023-05-07T05:12:37;3.97;;;2.45;;
40707;SDS011;26392;42.696;23.350;2023-05-07T05:15:03;2.03;;;1.85;;
40707;SDS011;26392;42.696;23.350;2023-05-07T05:17:29;5.40;;;2.90;;
40707;SDS011;26392;42.696;23.350;2023-05-07T05:19:55;3.45;;;1.75;;
40707;SDS011;26392;42.696;23.350;2023-05-07T05:22:21;3.72;;;2.13;;
40707;SDS011;26392;42.696;23.350;2023-05-07T05:24:46;3.55;;;1.35;;
40707;SDS011;26392;42.696;23.350;2023-05-07T05:27:11;5.85;;;2.15;;
40707;SDS011;26392;42.696;23.350;2023-05-07T05:29:37;1.30;;;1.20;;
40707;SDS011;26392;42.696;23.350;2023-05-07T05:32:02;3.63;;;2.03;;
40707;SDS011;26392;42.696;23.350;2023-05-07T05:34:27;2.33;;;2.15;;
40707;SDS011;26392;42.696;23.350;2023-05-07T05:36:53;3.75;;;2.17;;
40707;SDS011;26392;42.696;23.350;2023-05-07T05:39:18;2.00;;;1.80;;
40707;SDS011;26392;42.696;23.350;2023-05-07T05:41:44;4.53;;;2.05;;
40707;SDS011;26392;42.696;23.350;2023-05-07T05:44:09;6.07;;;2.95;;
40707;SDS011;26392;42.696;23.350;2023-05-07T05:46:35;6.05;;;3.08;;
40707;SDS011;26392;42.696;23.350;2023-05-07T05:49:00;3.85;;;2.58;;
40707;SDS011;26392;42.696;23.350;2023-05-07T05:51:26;2.33;;;2.13;;
40707;SDS011;26392;42.696;23.350;2023-05-07T05:53:51;2.95;;;1.83;;
40707;SDS011;26392;42.696;23.350;2023-05-07T05:56:16;2.20;;;1.92;;
40707;SDS011;26392;42.696;23.350;2023-05-07T05:58:42;2.90;;;2.17;;
40707;SDS011;26392;42.696;23.350;2023-05-07T06:01:07;2.03;;;1.90;;
40707;SDS011;26392;42.696;23.350;2023-05-07T06:03:33;3.35;;;2.28;;
40707;SDS011;26392;42.696;23.350;2023-05-07T06:05:58;4.53;;;2.33;;
40707;SDS011;26392;42.696;23.350;2023-05-07T06:08:25;6.35;;;2.85;;
40707;SDS011;26392;42.696;23.350;2023-05-07T06:10:50;3.22;;;2.97;;
40707;SDS011;26392;42.696;23.350;2023-05-07T06:13:16;2.42;;;1.67;;
40707;SDS011;26392;42.696;23.350;2023-05-07T06:15:41;4.82;;;3.22;;
40707;SDS011;26392;42.696;23.350;2023-05-07T06:18:07;3.92;;;2.40;;
40707;SDS011;26392;42.696;23.350;2023-05-07T06:20:32;3.88;;;2.28;;
40707;SDS011;26392;42.696;23.350;2023-05-07T06:22:57;4.20;;;2.20;;
40707;SDS011;26392;42.696;23.350;2023-05-07T06:25:23;3.90;;;2.03;;
40707;SDS011;26392;42.696;23.350;2023-05-07T06:27:48;26.38;;;2.72;;
40707;SDS011;26392;42.696;23.350;2023-05-07T06:30:14;4.38;;;2.83;;
40707;SDS011;26392;42.696;23.350;2023-05-07T06:32:40;3.53;;;2.75;;
40707;SDS011;26392;42.696;23.350;2023-05-07T06:35:06;5.22;;;2.47;;
40707;SDS011;26392;42.696;23.350;2023-05-07T06:37:31;41.33;;;2.95;;
40707;SDS011;26392;42.696;23.350;2023-05-07T06:39:57;9.05;;;3.72;;
40707;SDS011;26392;42.696;23.350;2023-05-07T06:42:22;5.57;;;1.90;;
40707;SDS011;26392;42.696;23.350;2023-05-07T06:44:47;4.40;;;2.47;;
40707;SDS011;26392;42.696;23.350;2023-05-07T06:47:13;2.78;;;2.03;;
40707;SDS011;26392;42.696;23.350;2023-05-07T06:49:38;5.45;;;2.40;;
40707;SDS011;26392;42.696;23.350;2023-05-07T06:52:04;11.82;;;1.77;;
40707;SDS011;26392;42.696;23.350;2023-05-07T06:54:29;8.30;;;2.60;;
40707;SDS011;26392;42.696;23.350;2023-05-07T06:56:54;3.40;;;2.30;;
40707;SDS011;26392;42.696;23.350;2023-05-07T06:59:20;5.45;;;2.47;;
40707;SDS011;26392;42.696;23.350;2023-05-07T07:01:45;5.97;;;3.13;;
40707;SDS011;26392;42.696;23.350;2023-05-07T07:04:11;6.78;;;3.38;;
40707;SDS011;26392;42.696;23.350;2023-05-07T07:06:36;5.07;;;2.50;;
40707;SDS011;26392;42.696;23.350;2023-05-07T07:09:02;5.90;;;3.08;;
40707;SDS011;26392;42.696;23.350;2023-05-07T07:11:27;4.65;;;3.45;;
40707;SDS011;26392;42.696;23.350;2023-05-07T07:13:52;5.60;;;2.90;;
40707;SDS011;26392;42.696;23.350;2023-05-07T07:16:19;5.70;;;3.17;;
40707;SDS011;26392;42.696;23.350;2023-05-07T07:18:45;4.13;;;2.33;;
40707;SDS011;26392;42.696;23.350;2023-05-07T07:21:11;6.97;;;1.70;;
40707;SDS011;26392;42.696;23.350;2023-05-07T07:23:36;1.70;;;1.60;;
40707;SDS011;26392;42.696;23.350;2023-05-07T07:26:02;2.55;;;1.95;;
40707;SDS011;26392;42.696;23.350;2023-05-07T07:28:27;5.88;;;2.35;;
40707;SDS011;26392;42.696;23.350;2023-05-07T07:30:53;4.50;;;3.45;;
40707;SDS011;26392;42.696;23.350;2023-05-07T07:33:18;2.95;;;2.55;;
40707;SDS011;26392;42.696;23.350;2023-05-07T07:35:43;5.93;;;2.90;;
40707;SDS011;26392;42.696;23.350;2023-05-07T07:38:09;2.33;;;2.10;;
40707;SDS011;26392;42.696;23.350;2023-05-07T07:40:35;4.38;;;2.08;;
40707;SDS011;26392;42.696;23.350;2023-05-07T07:43:00;2.15;;;2.00;;
40707;SDS011;26392;42.696;23.350;2023-05-07T07:45:26;3.55;;;2.33;;
40707;SDS011;26392;42.696;23.350;2023-05-07T07:47:52;5.18;;;2.15;;
40707;SDS011;26392;42.696;23.350;2023-05-07T07:50:17;4.38;;;2.38;;
40707;SDS011;26392;42.696;23.350;2023-05-07T07:52:43;3.25;;;2.30;;
40707;SDS011;26392;42.696;23.350;2023-05-07T07:55:08;2.28;;;1.77;;
40707;SDS011;26392;42.696;23.350;2023-05-07T07:57:34;3.42;;;2.72;;
40707;SDS011;26392;42.696;23.350;2023-05-07T07:59:59;6.90;;;2.40;;
40707;SDS011;26392;42.696;23.350;2023-05-07T08:02:25;2.80;;;2.40;;
40707;SDS011;26392;42.696;23.350;2023-05-07T08:04:51;2.53;;;2.33;;
40707;SDS011;26392;42.696;23.350;2023-05-07T08:07:17;3.58;;;2.35;;
40707;SDS011;26392;42.696;23.350;2023-05-07T08:09:45;2.95;;;2.08;;
40707;SDS011;26392;42.696;23.350;2023-05-07T08:12:11;1.75;;;1.60;;
40707;SDS011;26392;42.696;23.350;2023-05-07T08:14:36;11.05;;;2.75;;
40707;SDS011;26392;42.696;23.350;2023-05-07T08:17:02;2.13;;;1.45;;
40707;SDS011;26392;42.696;23.350;2023-05-07T08:19:27;5.32;;;2.47;;
40707;SDS011;26392;42.696;23.350;2023-05-07T08:21:53;2.53;;;2.03;;
40707;SDS011;26392;42.696;23.350;2023-05-07T08:24:18;1.25;;;1.15;;
40707;SDS011;26392;42.696;23.350;2023-05-07T08:26:44;6.82;;;3.10;;
40707;SDS011;26392;42.696;23.350;2023-05-07T08:29:10;5.45;;;2.38;;
40707;SDS011;26392;42.696;23.350;2023-05-07T08:31:35;3.42;;;2.63;;
40707;SDS011;26392;42.696;23.350;2023-05-07T08:34:01;3.08;;;2.38;;
40707;SDS011;26392;42.696;23.350;2023-05-07T08:36:28;1.98;;;1.80;;
40707;SDS011;26392;42.696;23.350;2023-05-07T08:38:53;4.40;;;2.53;;
40707;SDS011;26392;42.696;23.350;2023-05-07T08:41:19;2.72;;;2.22;;
40707;SDS011;26392;42.696;23.350;2023-05-07T08:43:46;2.22;;;1.58;;
40707;SDS011;26392;42.696;23.350;2023-05-07T08:46:16;3.53;;;2.55;;
40707;SDS011;26392;42.696;23.350;2023-05-07T08:48:43;2.92;;;2.03;;
40707;SDS011;26392;42.696;23.350;2023-05-07T08:51:12;1.83;;;1.20;;
40707;SDS011;26392;42.696;23.350;2023-05-07T08:53:39;4.82;;;1.83;;
40707;SDS011;26392;42.696;23.350;2023-05-07T08:56:06;3.00;;;2.05;;
40707;SDS011;26392;42.696;23.350;2023-05-07T08:58:33;4.78;;;2.17;;
40707;SDS011;26392;42.696;23.350;2023-05-07T09:00:59;6.13;;;1.88;;
40707;SDS011;26392;42.696;23.350;2023-05-07T09:03:28;1.77;;;1.13;;
40707;SDS011;26392;42.696;23.350;2023-05-07T09:05:55;1.00;;;1.00;;
40707;SDS011;26392;42.696;23.350;2023-05-07T09:08:24;1.75;;;1.65;;
40707;SDS011;26392;42.696;23.350;2023-05-07T09:10:51;2.05;;;1.88;;
40707;SDS011;26392;42.696;23.350;2023-05-07T09:13:17;2.65;;;2.13;;
40707;SDS011;26392;42.696;23.350;2023-05-07T09:15:43;4.88;;;2.45;;
40707;SDS011;26392;42.696;23.350;2023-05-07T09:18:08;1.40;;;1.30;;
40707;SDS011;26392;42.696;23.350;2023-05-07T09:20:35;2.17;;;1.33;;
40707;SDS011;26392;42.696;23.350;2023-05-07T09:23:01;2.33;;;1.50;;
40707;SDS011;26392;42.696;23.350;2023-05-07T09:25:27;2.42;;;1.58;;
40707;SDS011;26392;42.696;23.350;2023-05-07T09:27:54;1.17;;;1.08;;
40707;SDS011;26392;42.696;23.350;2023-05-07T09:30:20;6.57;;;1.35;;
40707;SDS011;26392;42.696;23.350;2023-05-07T09:32:45;2.08;;;1.48;;
40707;SDS011;26392;42.696;23.350;2023-05-07T09:35:14;1.98;;;1.58;;
40707;SDS011;26392;42.696;23.350;2023-05-07T09:37:41;1.55;;;1.25;;
40707;SDS011;26392;42.696;23.350;2023-05-07T09:40:07;5.13;;;1.92;;
40707;SDS011;26392;42.696;23.350;2023-05-07T09:42:34;2.17;;;1.50;;
40707;SDS011;26392;42.696;23.350;2023-05-07T09:44:59;3.28;;;1.73;;
40707;SDS011;26392;42.696;23.350;2023-05-07T09:47:25;3.17;;;1.65;;
40707;SDS011;26392;42.696;23.350;2023-05-07T09:49:57;1.10;;;1.10;;
40707;SDS011;26392;42.696;23.350;2023-05-07T09:52:26;1.25;;;1.13;;
40707;SDS011;26392;42.696;23.350;2023-05-07T09:54:58;1.40;;;1.33;;
40707;SDS011;26392;42.696;23.350;2023-05-07T09:57:25;1.77;;;1.48;;
40707;SDS011;26392;42.696;23.350;2023-05-07T09:59:52;1.70;;;1.60;;
40707;SDS011;26392;42.696;23.350;2023-05-07T10:02:21;1.58;;;1.48;;
40707;SDS011;26392;42.696;23.350;2023-05-07T10:04:48;1.85;;;0.82;;
40707;SDS011;26392;42.696;23.350;2023-05-07T10:07:14;1.45;;;1.35;;
40707;SDS011;26392;42.696;23.350;2023-05-07T10:09:40;1.45;;;1.35;;
40707;SDS011;26392;42.696;23.350;2023-05-07T10:12:07;5.30;;;2.08;;
40707;SDS011;26392;42.696;23.350;2023-05-07T10:14:34;1.63;;;1.17;;
40707;SDS011;26392;42.696;23.350;2023-05-07T10:17:00;4.70;;;2.10;;
40707;SDS011;26392;42.696;23.350;2023-05-07T10:19:27;1.58;;;1.20;;
40707;SDS011;26392;42.696;23.350;2023-05-07T10:21:55;1.58;;;1.00;;
40707;SDS011;26392;42.696;23.350;2023-05-07T10:24:33;1.20;;;1.10;;
40707;SDS011;26392;42.696;23.350;2023-05-07T10:27:01;1.65;;;1.00;;
40707;SDS011;26392;42.696;23.350;2023-05-07T10:29:37;0.63;;;0.63;;
40707;SDS011;26392;42.696;23.350;2023-05-07T10:34:53;1.08;;;1.08;;
40707;SDS011;26392;42.696;23.350;2023-05-07T10:37:21;2.28;;;0.90;;
40707;SDS011;26392;42.696;23.350;2023-05-07T10:39:47;1.15;;;0.90;;
40707;SDS011;26392;42.696;23.350;2023-05-07T10:42:14;1.50;;;1.35;;
40707;SDS011;26392;42.696;23.350;2023-05-07T10:44:40;1.10;;;0.82;;
40707;SDS011;26392;42.696;23.350;2023-05-07T10:47:06;1.75;;;1.25;;
40707;SDS011;26392;42.696;23.350;2023-05-07T10:52:14;1.45;;;1.35;;
40707;SDS011;26392;42.696;23.350;2023-05-07T10:54:44;4.47;;;1.73;;
40707;SDS011;26392;42.696;23.350;2023-05-07T10:59:56;1.73;;;1.25;;
40707;SDS011;26392;42.696;23.350;2023-05-07T11:02:21;1.20;;;1.17;;
40707;SDS011;26392;42.696;23.350;2023-05-07T11:05:18;1.20;;;1.10;;
40707;SDS011;26392;42.696;23.350;2023-05-07T11:07:53;0.95;;;0.95;;
40707;SDS011;26392;42.696;23.350;2023-05-07T11:10:22;1.10;;;1.05;;
40707;SDS011;26392;42.696;23.350;2023-05-07T11:15:15;1.77;;;1.45;;
40707;SDS011;26392;42.696;23.350;2023-05-07T11:17:58;1.67;;;1.33;;
40707;SDS011;26392;42.696;23.350;2023-05-07T11:26:03;1.50;;;1.02;;
40707;SDS011;26392;42.696;23.350;2023-05-07T11:28:30;1.15;;;1.15;;
40707;SDS011;26392;42.696;23.350;2023-05-07T11:30:57;2.28;;;1.38;;
40707;SDS011;26392;42.696;23.350;2023-05-07T11:33:23;1.00;;;0.93;;
40707;SDS011;26392;42.696;23.350;2023-05-07T11:35:50;1.13;;;1.02;;
40707;SDS011;26392;42.696;23.350;2023-05-07T11:38:18;1.05;;;0.95;;
40707;SDS011;26392;42.696;23.350;2023-05-07T11:43:16;1.33;;;1.23;;
40707;SDS011;26392;42.696;23.350;2023-05-07T11:45:42;1.52;;;1.42;;
40707;SDS011;26392;42.696;23.350;2023-05-07T11:48:07;0.88;;;0.88;;
40707;SDS011;26392;42.696;23.350;2023-05-07T11:50:33;1.35;;;1.25;;
40707;SDS011;26392;42.696;23.350;2023-05-07T11:52:58;1.55;;;1.45;;
40707;SDS011;26392;42.696;23.350;2023-05-07T11:55:23;0.73;;;0.73;;
40707;SDS011;26392;42.696;23.350;2023-05-07T11:57:50;1.45;;;1.35;;
40707;SDS011;26392;42.696;23.350;2023-05-07T12:00:16;1.35;;;1.25;;
40707;SDS011;26392;42.696;23.350;2023-05-07T12:02:42;1.20;;;1.10;;
40707;SDS011;26392;42.696;23.350;2023-05-07T12:05:07;1.75;;;1.27;;
40707;SDS011;26392;42.696;23.350;2023-05-07T12:07:33;1.42;;;1.33;;
40707;SDS011;26392;42.696;23.350;2023-05-07T12:09:59;1.00;;;1.00;;
40707;SDS011;26392;42.696;23.350;2023-05-07T12:12:29;1.70;;;1.30;;
40707;SDS011;26392;42.696;23.350;2023-05-07T12:14:55;1.27;;;0.82;;
40707;SDS011;26392;42.696;23.350;2023-05-07T12:17:20;1.30;;;1.20;;
40707;SDS011;26392;42.696;23.350;2023-05-07T12:19:46;1.85;;;1.33;;
40707;SDS011;26392;42.696;23.350;2023-05-07T12:22:12;1.02;;;1.00;;
40707;SDS011;26392;42.696;23.350;2023-05-07T12:27:21;1.13;;;1.10;;
40707;SDS011;26392;42.696;23.350;2023-05-07T12:29:47;1.30;;;1.20;;
40707;SDS011;26392;42.696;23.350;2023-05-07T12:32:17;2.83;;;0.75;;
40707;SDS011;26392;42.696;23.350;2023-05-07T12:34:44;1.15;;;0.90;;
40707;SDS011;26392;42.696;23.350;2023-05-07T12:37:10;0.88;;;0.88;;
40707;SDS011;26392;42.696;23.350;2023-05-07T12:39:35;0.70;;;0.70;;
40707;SDS011;26392;42.696;23.350;2023-05-07T12:42:01;2.72;;;1.30;;
40707;SDS011;26392;42.696;23.350;2023-05-07T12:44:30;0.85;;;0.85;;
40707;SDS011;26392;42.696;23.350;2023-05-07T12:46:57;0.57;;;0.57;;
40707;SDS011;26392;42.696;23.350;2023-05-07T12:49:23;1.17;;;0.85;;
40707;SDS011;26392;42.696;23.350;2023-05-07T12:51:49;8.70;;;2.33;;
40707;SDS011;26392;42.696;23.350;2023-05-07T12:54:31;0.95;;;0.88;;
40707;SDS011;26392;42.696;23.350;2023-05-07T12:57:02;1.35;;;1.25;;
40707;SDS011;26392;42.696;23.350;2023-05-07T12:59:35;4.10;;;1.67;;
40707;SDS011;26392;42.696;23.350;2023-05-07T13:02:02;2.35;;;1.58;;
40707;SDS011;26392;42.696;23.350;2023-05-07T13:04:27;1.10;;;0.88;;
40707;SDS011;26392;42.696;23.350;2023-05-07T13:06:53;1.02;;;0.98;;
40707;SDS011;26392;42.696;23.350;2023-05-07T13:09:18;0.90;;;0.90;;
40707;SDS011;26392;42.696;23.350;2023-05-07T13:11:43;0.95;;;0.95;;
40707;SDS011;26392;42.696;23.350;2023-05-07T13:14:09;0.70;;;0.70;;
40707;SDS011;26392;42.696;23.350;2023-05-07T13:16:34;2.30;;;1.23;;
40707;SDS011;26392;42.696;23.350;2023-05-07T13:19:00;1.08;;;0.73;;
40707;SDS011;26392;42.696;23.350;2023-05-07T13:21:25;0.70;;;0.70;;
40707;SDS011;26392;42.696;23.350;2023-05-07T13:23:51;0.70;;;0.70;;
40707;SDS011;26392;42.696;23.350;2023-05-07T13:26:17;1.23;;;1.05;;
40707;SDS011;26392;42.696;23.350;2023-05-07T13:28:43;0.77;;;0.77;;
40707;SDS011;26392;42.696;23.350;2023-05-07T13:31:08;1.75;;;1.10;;
40707;SDS011;26392;42.696;23.350;2023-05-07T13:33:34;4.90;;;1.38;;
40707;SDS011;26392;42.696;23.350;2023-05-07T13:36:00;2.47;;;0.98;;
40707;SDS011;26392;42.696;23.350;2023-05-07T13:38:26;0.80;;;0.80;;
40707;SDS011;26392;42.696;23.350;2023-05-07T13:40:51;1.02;;;1.00;;
40707;SDS011;26392;42.696;23.350;2023-05-07T13:43:16;0.93;;;0.93;;
40707;SDS011;26392;42.696;23.350;2023-05-07T13:45:43;1.83;;;1.00;;
40707;SDS011;26392;42.696;23.350;2023-05-07T13:48:09;1.10;;;0.93;;
40707;SDS011;26392;42.696;23.350;2023-05-07T13:50:35;0.80;;;0.80;;
40707;SDS011;26392;42.696;23.350;2023-05-07T13:53:00;0.90;;;0.77;;
40707;SDS011;26392;42.696;23.350;2023-05-07T13:55:28;0.60;;;0.60;;
40707;SDS011;26392;42.696;23.350;2023-05-07T13:57:57;0.65;;;0.65;;
40707;SDS011;26392;42.696;23.350;2023-05-07T14:00:25;1.70;;;1.08;;
40707;SDS011;26392;42.696;23.350;2023-05-07T14:02:51;5.15;;;1.15;;
40707;SDS011;26392;42.696;23.350;2023-05-07T14:05:17;1.20;;;1.10;;
40707;SDS011;26392;42.696;23.350;2023-05-07T14:07:42;1.08;;;0.98;;
40707;SDS011;26392;42.696;23.350;2023-05-07T14:10:08;0.60;;;0.60;;
40707;SDS011;26392;42.696;23.350;2023-05-07T14:12:34;1.42;;;1.30;;
40707;SDS011;26392;42.696;23.350;2023-05-07T14:14:59;1.00;;;0.98;;
40707;SDS011;26392;42.696;23.350;2023-05-07T14:17:25;0.90;;;0.90;;
40707;SDS011;26392;42.696;23.350;2023-05-07T14:19:52;1.98;;;0.90;;
40707;SDS011;26392;42.696;23.350;2023-05-07T14:22:21;0.80;;;0.80;;
40707;SDS011;26392;42.696;23.350;2023-05-07T14:24:47;1.00;;;1.00;;
40707;SDS011;26392;42.696;23.350;2023-05-07T14:27:13;1.00;;;1.00;;
40707;SDS011;26392;42.696;23.350;2023-05-07T14:29:39;1.10;;;1.10;;
40707;SDS011;26392;42.696;23.350;2023-05-07T14:32:04;1.40;;;1.30;;
40707;SDS011;26392;42.696;23.350;2023-05-07T14:34:30;1.50;;;1.10;;
40707;SDS011;26392;42.696;23.350;2023-05-07T14:36:56;1.23;;;0.98;;
40707;SDS011;26392;42.696;23.350;2023-05-07T14:39:21;0.85;;;0.85;;
40707;SDS011;26392;42.696;23.350;2023-05-07T14:41:47;1.38;;;1.27;;
40707;SDS011;26392;42.696;23.350;2023-05-07T14:44:12;0.98;;;0.93;;
40707;SDS011;26392;42.696;23.350;2023-05-07T14:46:38;3.45;;;1.15;;
40707;SDS011;26392;42.696;23.350;2023-05-07T14:49:03;1.45;;;1.35;;